Main page
METAR-TAF:

METAR-TAF

Airports :

Houari Boumediene Airport

Algiers, Algeria

latitude: 36-43N, longitude: 003-15E, elevation: 25 m

Current weather observation

The report was made 23 minutes ago, at 01:30 UTC
Wind 4 kt from the South
Temperature 10°C
Humidity 93%
Pressure 1028 hPa
Visibility 10 km or more
Few clouds at a height of 2300 ft
Scattered clouds at a height of 20000 ft

METAR: DAAG 130130Z 18004KT 9999 FEW023 SCT200 10/09 Q1028

Time: 02:53 (01:53 UTC)

Forecast

The report was made 2 hours and 53 minutes ago, at 23:00 UTC
Forecast valid from 13 at 00 UTC to 13 at 24 UTC
Wind 2 kt from variable directions
Visibility 10 km or more
Few clouds at a height of 2300 ft
Scattered clouds at a height of 20000 ft
Becoming
from 13 at 10 UTC to 13 at 12 UTC
Wind 10 kt from the North

TAF: DAAG 122300Z 1300/1324 VRB02KT 9999 FEW023 SCT200 BECMG 1310/1312 36010KT

Weather observations and forecasts of more than 4000 airports (METAR and TAF reports).

The available stations are represented by yellow and red dots on the map.

Hover mouse over dot to see the name of the station.

Then click to see weather observations and forecasts.

To change the map : click on the green buttons with a black cross to zoom in, on the green button with a dash to zoom out, or on the green arrows for adjacent maps.


METAR-TAF: